METAR v bližini

 

LJLJ - Ljubljana/Brnik, Slovenia
Oddaljenost od postaje: Z 41km
Podatki zajeti: 20/09/2017 18:30
Pretežno oblačno
Pretežno oblačno
 Veter iz smeri SSZ
Veter: SSZ 11 km/h
Temperatura: 12°C
Rosišče: 9°C
Vlažnost: 82%
Tlak: 1016 hPa
Oblačnost: Pretežno oblačno
Vidljivost: 10 km
Podrobnosti o oblakih: Rahlo oblačno 1524 m
Pretežno oblačno 3658 m
2017/09/20 16:30 LJLJ 201630Z 34006KT 310V040 9999 FEW050 BKN120 12/09 Q1016 NOSIG
LJMB - Maribor, Slovenia
Oddaljenost od postaje: SV 63km
Podatki zajeti: 20/09/2017 18:30
Jasno
Jasno
 Veter iz smeri S
Veter: S 13 km/h
Temperatura: 13°C
Rosišče: 7°C
Vlažnost: 67%
Tlak: 1016 hPa
Stanje: Jasno
Vidljivost: večja od 10 km
2017/09/20 16:30 LJMB 201630Z 35007KT CAVOK 13/07 Q1016
 
LJPZ - Portoroz, Slovenia
Oddaljenost od postaje: JZ 130km
Podatki zajeti: 20/09/2017 18:30
Jasno
Jasno
 Veter iz smeri Z
Veter: Z 4 km/h
Temperatura: 18°C
Rosišče: 12°C
Vlažnost: 68%
Tlak: 1016 hPa
Stanje: Jasno
Vidljivost: večja od 10 km
2017/09/20 16:30 LJPZ 201630Z 26002KT CAVOK 18/12 Q1016
LJCE - Cerklje, Slovenia
Oddaljenost od postaje: VJV 49km
Podatki zajeti: 20/09/2017 18:30
Delno oblačno
Delno oblačno
 Veter iz smeri calm
Veter: Tišina
Temperatura: 13°C
Rosišče: 10°C
Vlažnost: 82%
Tlak: 1016 hPa
Oblačnost: Delno oblačno
Vidljivost: 10 km
2017/09/20 16:30 LJCE 201630Z AUTO 00000KT 9999 NSC 13/10 Q1016
 
LDZA - Zagreb/Pleso, Croatia
Oddaljenost od postaje: VJV 96km
Podatki zajeti: 20/09/2017 18:30
Rahlo oblačno
Rahlo oblačno
 Veter iz smeri ZJZ
Veter: ZJZ 9 km/h
Temperatura: 12°C
Rosišče: 10°C
Vlažnost: 88%
Tlak: 1016 hPa
Oblačnost: Rahlo oblačno
Vidljivost: 10 km
Podrobnosti o oblakih: Rahlo oblačno 914 m
2017/09/20 16:30 LDZA 201630Z 25005KT 9999 FEW030 12/10 Q1016 NOSIG
LDRI - Rijeka/Omisalj, Croatia
Oddaljenost od postaje: JJZ 109km
Podatki zajeti: 20/09/2017 18:30
Delno oblačno
Delno oblačno
 Veter iz smeri SSV
Veter: SSV 7 km/h
Temperatura: 16°C
Rosišče: 6°C
Vlažnost: 52%
Tlak: 1016 hPa
Oblačnost: Delno oblačno
Vidljivost: 10 km
Podrobnosti o oblakih: Delno oblačno 1676 m
2017/09/20 16:30 LDRI 201630Z 03004KT 350V060 9999 SCT055 16/06 Q1016
 
LDPL - Pula, Croatia
Oddaljenost od postaje: JJZ 164km
Podatki zajeti: 20/09/2017 18:30
Rahlo oblačno
Rahlo oblačno
 Veter iz smeri S
Veter: S 7 km/h
Temperatura: 16°C
Rosišče: 10°C
Vlažnost: 68%
Tlak: 1016 hPa
Oblačnost: Rahlo oblačno
Vidljivost: 10 km
Podrobnosti o oblakih: Rahlo oblačno 1372 m
2017/09/20 16:30 LDPL 201630Z 36004KT 9999 FEW045 16/10 Q1016 NOSIG
LOWK - Klagenfurt(Civ/M, Austria
Oddaljenost od postaje: SZ 76km
Podatki zajeti: 20/09/2017 18:20
Pretežno oblačno
Pretežno oblačno
 Veter iz smeri spremenljiv
Veter: spremenljiv 4 km/h
Temperatura: 13°C
Rosišče: 10°C
Vlažnost: 82%
Tlak: 1018 hPa
Oblačnost: Pretežno oblačno
Vidljivost: 10 km
Podrobnosti o oblakih: Rahlo oblačno 1524 m
Delno oblačno 2134 m
Pretežno oblačno 3353 m
2017/09/20 16:20 LOWK 201620Z VRB02KT 9999 FEW050 SCT070 BKN110 13/10 Q1018 NOSIG
 
LOWG - Graz (mil/Civ), Austria
Oddaljenost od postaje: SSV 100km
Podatki zajeti: 20/09/2017 18:20
Pretežno oblačno
Pretežno oblačno
 Veter iz smeri SZ
Veter: SZ 11 km/h
Temperatura: 14°C
Rosišče: 5°C
Vlažnost: 55%
Tlak: 1016 hPa
Oblačnost: Pretežno oblačno
Vidljivost: 10 km
Podrobnosti o oblakih: Delno oblačno 1524 m
Pretežno oblačno 3048 m
2017/09/20 16:20 LOWG 201620Z 32006KT 290V350 9999 SCT050 BKN100 14/05 Q1016 NOSIG
LOWZ - Zell Am See, Austria
Oddaljenost od postaje: SZ 211km
Podatki zajeti: 31/12/2016 17:00
Ni posodobljen
Jasno
Jasno
 Veter iz smeri spremenljiv
Veter: spremenljiv 4 km/h
Temperatura: -4°C
Rosišče: -7°C
Vlažnost: 80%
Tlak: 1031 hPa
Oblačnost: Jasno
2016/12/31 16:00 LOWZ 311600Z VRB02KT 50KM SKC M04/M07 Q1031
 
LOAN - Wr.neustadt East, Austria
Oddaljenost od postaje: SSV 212km
Podatki zajeti: 20/09/2017 18:00
Pretežno oblačno
Pretežno oblačno
 Veter iz smeri ZSZ
Veter: ZSZ 13 km/h
Oblačnost: Pretežno oblačno
Podrobnosti o oblakih: Rahlo oblačno 610 m
Delno oblačno 1219 m
Pretežno oblačno 3048 m
2017/09/20 16:00 LOAN 201600Z 30007KT 30KM FEW020CU SCT040SC BKN100AC
LIPQ - Ronchi Legionari, Italy
Oddaljenost od postaje: JZ 35km
Podatki zajeti: 20/09/2017 18:20
Delno oblačno
Delno oblačno
 Veter iz smeri JV
Veter: JV 9 km/h
Temperatura: 17°C
Rosišče: 8°C
Vlažnost: 56%
Tlak: 1015 hPa
Oblačnost: Delno oblačno
Vidljivost: 10 km
Podrobnosti o oblakih: Delno oblačno 2134 m
2017/09/20 16:20 LIPQ 201620Z 13005KT 9999 SCT070 17/08 Q1015
 
LIVT - Trieste, Italy
Oddaljenost od postaje: ZJZ 109km
Podatki zajeti: 20/09/2017 17:55
Jasno
Jasno
 Veter iz smeri VSV
Veter: VSV 2 km/h
Temperatura: 17°C
Rosišče: 10°C
Vlažnost: 64%
Tlak: 1015 hPa
Stanje: Jasno
Vidljivost: večja od 10 km
2017/09/20 15:55 LIVT 201555Z 06001KT CAVOK 17/10 Q1015 RMK BKN BKN070 QUK 0 QUL 0 VIS MAR 20 KM VIS MIN 9999
LIVO - Tarvisio, Italy
Oddaljenost od postaje: SSZ 49km
Podatki zajeti: 20/09/2017 17:55
Rahlo oblačno
Rahlo oblačno
 Veter iz smeri calm
Veter: Tišina
Temperatura: 11°C
Rosišče: 8°C
Vlažnost: 82%
Tlak: 1016 hPa
Oblačnost: Rahlo oblačno
Vidljivost: 10 km
Podrobnosti o oblakih: Rahlo oblačno 1067 m
2017/09/20 15:55 LIVO 201555Z 00000KT 9999 FEW035 11/08 Q1016 RMK SCT SCT070 VIS MIN 9999
 
LIPZ - Venezia/Tessera, Italy
Oddaljenost od postaje: ZJZ 217km
Podatki zajeti: 20/09/2017 18:20
Jasno
Jasno
 Veter iz smeri JV
Veter: JV 15 km/h
Temperatura: 20°C
Rosišče: 12°C
Vlažnost: 60%
Tlak: 1014 hPa
Stanje: Jasno
Vidljivost: večja od 10 km
2017/09/20 16:20 LIPZ 201620Z 14008KT CAVOK 20/12 Q1014 NOSIG
LHSM - Balaton, Hungary
Oddaljenost od postaje: VSV 177km
Podatki zajeti: 20/09/2017 17:45
Oblačno
Oblačno
 Veter iz smeri SSZ
Veter: SSZ 30 km/h
Temperatura: 13°C
Rosišče: 9°C
Vlažnost: 77%
Tlak: 1015 hPa
Oblačnost: Oblačno
Vidljivost: 10 km
Podrobnosti o oblakih: Rahlo oblačno 701 m
Oblačno 2530 m
2017/09/20 15:45 LHSM 201545Z 34016KT 9999 FEW023 OVC083 13/09 Q1015 RERA NOSIG